Time;durP1;ratioP1;P1;durP2;ratioP2;P2;SDS_P1;SDS_P2;PMS_P1;PMS_P2;Temp;Humidity;BMP_temperature;BMP_pressure;BME280_temperature;BME280_humidity;BME280_pressure;Samples;Min_cycle;Max_cycle;Signal;HPM_P1;HPM_P2
2022/11/17 00:01:37;;;;;;;;;0.00;0.00;;;;;11.82;72.34;97730.25;5072128;28;8857;-58
2022/11/17 00:04:04;;;;;;;;;1.00;0.50;;;;;11.82;72.73;97725.75;5072015;28;8830;-58
2022/11/17 00:06:32;;;;;;;;;0.00;0.00;;;;;11.81;72.44;97713.44;5072001;28;8817;-58
2022/11/17 00:09:01;;;;;;;;;2.50;2.50;;;;;11.81;72.64;97708.09;5072665;28;8837;-58
2022/11/17 00:14:31;;;;;;;;;1.00;1.00;;;;;11.81;72.71;97710.75;5071611;28;8836;-58
2022/11/17 00:14:35;;;;;;;;;3.25;2.50;;;;;11.83;72.93;97706.06;5072251;28;8834;-58
2022/11/17 00:17:03;;;;;;;;;1.50;1.50;;;;;11.82;72.58;97693.75;5062969;28;8802;-59
2022/11/17 00:22:16;;;;;;;;;0.50;0.50;;;;;11.85;72.30;97682.72;5052256;28;8846;-58
2022/11/17 00:24:44;;;;;;;;;1.00;1.00;;;;;11.84;72.51;97678.38;5070204;28;9499;-59
2022/11/17 00:27:12;;;;;;;;;1.00;1.00;;;;;11.84;72.28;97675.72;5071739;28;8977;-58
2022/11/17 00:29:39;;;;;;;;;0.00;0.00;;;;;11.83;72.53;97670.59;5048139;28;8837;-57
2022/11/17 00:34:53;;;;;;;;;1.00;1.00;;;;;11.88;72.25;97652.16;5038206;28;8925;-58
2022/11/17 00:37:20;;;;;;;;;1.00;1.00;;;;;11.90;72.85;97647.50;5038390;28;8847;-59
2022/11/17 00:39:48;;;;;;;;;0.00;0.00;;;;;11.92;72.58;97643.63;5038352;28;8840;-58
2022/11/17 00:42:15;;;;;;;;;1.00;1.00;;;;;11.95;72.96;97636.06;5037699;28;8841;-58
2022/11/17 00:44:43;;;;;;;;;0.00;0.00;;;;;11.96;72.63;97631.56;5038315;28;8890;-58
2022/11/17 00:47:13;;;;;;;;;0.00;0.00;;;;;11.96;72.37;97620.91;5038499;28;8836;-58
2022/11/17 00:49:40;;;;;;;;;1.00;1.00;;;;;11.93;72.64;97615.94;5038197;28;8844;-56
2022/11/17 00:52:08;;;;;;;;;0.50;0.00;;;;;11.90;72.82;97605.63;5037896;28;8844;-58
2022/11/17 00:54:35;;;;;;;;;0.75;0.75;;;;;11.87;73.19;97594.53;5050212;28;8829;-58
2022/11/17 00:57:03;;;;;;;;;2.00;1.00;;;;;11.84;73.29;97589.56;5038221;28;8915;-58
2022/11/17 00:59:34;;;;;;;;;1.50;1.00;;;;;11.83;72.98;97588.72;5037635;28;8825;-58
2022/11/17 01:02:01;;;;;;;;;1.00;0.50;;;;;11.81;73.69;97582.78;5038113;28;8828;-59
2022/11/17 01:04:29;;;;;;;;;0.50;0.50;;;;;11.81;73.03;97580.09;5037318;28;8832;-58
2022/11/17 01:06:57;;;;;;;;;3.00;1.00;;;;;11.80;73.44;97564.28;5044660;28;8818;-58
2022/11/17 01:09:25;;;;;;;;;0.75;0.75;;;;;11.79;73.19;97567.97;5037655;28;8859;-57
2022/11/17 01:11:52;;;;;;;;;0.50;0.50;;;;;11.78;73.55;97566.31;5037333;28;8860;-58
2022/11/17 01:14:20;;;;;;;;;0.00;0.00;;;;;11.76;73.54;97560.34;5037109;28;8844;-57
2022/11/17 01:16:48;;;;;;;;;1.00;1.00;;;;;11.75;73.99;97553.38;5037853;28;8816;-58
2022/11/17 01:19:16;;;;;;;;;1.50;0.75;;;;;11.74;73.66;97541.88;5037916;28;8603;-58
2022/11/17 01:21:43;;;;;;;;;0.00;0.00;;;;;11.73;73.83;97542.88;5038013;28;8832;-57
2022/11/17 01:24:13;;;;;;;;;0.00;0.00;;;;;11.73;73.93;97528.72;5040071;28;8821;-58
2022/11/17 01:26:41;;;;;;;;;1.00;1.00;;;;;11.71;73.55;97515.59;5037430;28;8821;-57
2022/11/17 01:29:09;;;;;;;;;1.00;1.00;;;;;11.70;73.67;97511.28;5036829;28;9572;-58
2022/11/17 01:31:36;;;;;;;;;1.00;1.00;;;;;11.70;74.33;97513.13;5037486;28;8805;-58
2022/11/17 01:34:04;;;;;;;;;1.00;1.00;;;;;11.68;74.38;97510.63;5037523;28;8836;-57
2022/11/17 01:37:17;;;;;;;;;0.00;0.00;;;;;11.69;73.95;97506.94;5036849;28;8829;-58
2022/11/17 01:39:22;;;;;;;;;1.00;0.25;;;;;11.69;74.15;97501.59;5037072;28;8816;-58
2022/11/17 01:41:49;;;;;;;;;1.50;1.50;;;;;11.69;74.08;97495.47;5036550;28;8845;-57
2022/11/17 01:44:17;;;;;;;;;1.00;1.00;;;;;11.71;74.13;97490.75;5037438;28;8856;-57
2022/11/17 01:46:46;;;;;;;;;0.00;0.00;;;;;11.71;74.22;97488.94;5037326;28;8847;-58
2022/11/17 01:49:14;;;;;;;;;0.00;0.00;;;;;11.71;74.04;97483.59;5036687;28;8943;-58
2022/11/17 01:51:42;;;;;;;;;1.50;1.25;;;;;11.73;73.90;97475.41;5017573;28;8838;-57
2022/11/17 01:54:09;;;;;;;;;0.00;0.00;;;;;11.73;74.01;97473.56;5035046;28;8883;-58
2022/11/17 01:56:38;;;;;;;;;1.00;1.00;;;;;11.74;74.08;97456.56;5037009;28;8902;-58
2022/11/17 01:59:07;;;;;;;;;0.50;0.00;;;;;11.74;73.88;97453.88;5036330;28;8890;-58
2022/11/17 02:01:54;;;;;;;;;1.00;1.00;;;;;11.74;73.86;97456.56;5033442;28;8812;-57
2022/11/17 02:04:22;;;;;;;;;0.00;0.00;;;;;11.75;73.85;97450.19;5037150;28;8828;-58
2022/11/17 02:06:50;;;;;;;;;0.00;0.00;;;;;11.73;74.44;97452.25;5036645;28;8837;-58
2022/11/17 02:09:17;;;;;;;;;0.00;0.00;;;;;11.70;74.52;97449.97;5036639;28;8847;-58
2022/11/17 02:11:45;;;;;;;;;1.00;1.00;;;;;11.65;74.07;97436.38;5036416;28;8821;-59
2022/11/17 02:14:12;;;;;;;;;0.00;0.00;;;;;11.62;74.36;97442.09;5036810;28;8840;-58
2022/11/17 02:16:40;;;;;;;;;0.00;0.00;;;;;11.59;74.26;97431.78;5036721;28;8852;-58
2022/11/17 02:19:08;;;;;;;;;0.00;0.00;;;;;11.56;73.97;97424.16;5036620;28;8919;-58
2022/11/17 02:21:39;;;;;;;;;0.25;0.25;;;;;11.55;74.68;97411.84;5036976;28;8822;-58
2022/11/17 02:24:06;;;;;;;;;0.50;0.50;;;;;11.54;74.71;97412.03;5049483;28;9570;-58
2022/11/17 02:26:34;;;;;;;;;0.75;0.75;;;;;11.53;74.66;97411.19;5056539;28;8818;-58
2022/11/17 02:29:02;;;;;;;;;0.00;0.00;;;;;11.52;74.98;97404.22;5039074;28;8841;-58
2022/11/17 02:31:29;;;;;;;;;1.00;0.00;;;;;11.50;74.64;97406.25;5036765;28;8861;-58
2022/11/17 02:33:57;;;;;;;;;1.00;1.00;;;;;11.50;74.71;97405.41;5036463;28;9490;-58
2022/11/17 02:36:24;;;;;;;;;1.00;1.00;;;;;11.48;75.06;97402.97;5036213;28;8898;-58
2022/11/17 02:38:53;;;;;;;;;0.00;0.00;;;;;11.46;75.15;97396.97;5035957;28;9588;-58
2022/11/17 02:41:21;;;;;;;;;0.75;0.75;;;;;11.44;74.73;97387.53;5036389;28;8820;-58
2022/11/17 02:44:03;;;;;;;;;0.00;0.00;;;;;11.41;75.08;97380.75;5036484;28;8875;-57
2022/11/17 02:46:31;;;;;;;;;0.00;0.00;;;;;11.38;75.19;97370.44;5035930;28;8829;-58
2022/11/17 02:48:59;;;;;;;;;0.00;0.00;;;;;11.32;76.04;97371.25;5035722;28;8859;-57
2022/11/17 02:51:27;;;;;;;;;0.00;0.00;;;;;11.27;76.27;97370.13;5035951;28;9539;-58
2022/11/17 02:53:54;;;;;;;;;0.00;0.00;;;;;11.23;76.01;97361.69;5045754;28;9464;-58
2022/11/17 02:56:22;;;;;;;;;0.25;0.25;;;;;11.20;76.22;97356.75;5035742;28;8829;-58
2022/11/17 02:58:50;;;;;;;;;0.00;0.00;;;;;11.20;76.08;97347.94;5035878;28;8910;-57
2022/11/17 03:01:18;;;;;;;;;0.75;0.75;;;;;11.19;76.17;97356.94;5035424;28;8813;-58
2022/11/17 03:03:46;;;;;;;;;0.00;0.00;;;;;11.20;76.17;97361.25;5035736;28;8898;-58
2022/11/17 03:06:14;;;;;;;;;0.00;0.00;;;;;11.18;76.17;97348.13;5036102;28;8905;-57
2022/11/17 03:08:41;;;;;;;;;0.50;0.00;;;;;11.19;76.52;97348.94;5035675;28;8821;-58
2022/11/17 03:11:09;;;;;;;;;0.00;0.00;;;;;11.17;76.46;97351.81;5035560;28;8813;-58
2022/11/17 03:13:36;;;;;;;;;2.50;1.50;;;;;11.16;76.51;97338.69;5036293;28;8837;-57
2022/11/17 03:16:04;;;;;;;;;0.75;0.75;;;;;11.13;76.38;97342.53;5035514;28;8825;-59
2022/11/17 03:18:32;;;;;;;;;0.00;0.00;;;;;11.06;76.61;97340.84;5035816;28;8921;-58
2022/11/17 03:20:59;;;;;;;;;0.00;0.00;;;;;10.97;76.96;97334.78;5035769;28;8902;-58
2022/11/17 03:23:27;;;;;;;;;0.00;0.00;;;;;10.91;77.11;97326.75;5042947;28;8819;-58
2022/11/17 03:25:56;;;;;;;;;0.00;0.00;;;;;10.86;77.42;97321.97;5050828;28;8853;-58
2022/11/17 03:28:24;;;;;;;;;0.25;0.25;;;;;10.84;77.68;97323.19;5035718;28;8890;-58
2022/11/17 03:30:52;;;;;;;;;0.00;0.00;;;;;10.80;77.70;97305.91;5035659;28;8898;-58
2022/11/17 03:33:19;;;;;;;;;0.00;0.00;;;;;10.76;78.20;97310.78;5035987;28;9490;-58
2022/11/17 03:35:47;;;;;;;;;0.00;0.00;;;;;10.72;77.56;97295.38;5035212;28;8833;-58
2022/11/17 03:38:17;;;;;;;;;0.00;0.00;;;;;10.67;78.62;97298.63;5035706;28;8812;-58
2022/11/17 03:40:45;;;;;;;;;0.00;0.00;;;;;10.64;78.54;97293.69;5035979;28;8875;-58
2022/11/17 03:43:12;;;;;;;;;0.00;0.00;;;;;10.64;78.29;97291.03;5034763;28;8841;-57
2022/11/17 03:45:40;;;;;;;;;0.00;0.00;;;;;10.64;78.79;97290.19;5035309;28;8816;-57
2022/11/17 03:48:08;;;;;;;;;1.00;0.00;;;;;10.65;78.91;97287.34;5035633;28;8852;-57
2022/11/17 03:50:35;;;;;;;;;0.75;0.75;;;;;10.66;79.01;97291.66;5035892;28;8911;-57
2022/11/17 03:53:03;;;;;;;;;0.00;0.00;;;;;10.65;79.07;97281.19;5039168;28;9517;-58
2022/11/17 03:55:31;;;;;;;;;0.00;0.00;;;;;10.63;79.04;97289.34;5055454;28;8896;-58
2022/11/17 03:57:58;;;;;;;;;0.00;0.00;;;;;10.61;79.02;97286.06;5049037;28;8809;-57
2022/11/17 04:00:26;;;;;;;;;0.00;0.00;;;;;10.62;79.20;97285.03;5035300;28;8829;-58
2022/11/17 04:02:54;;;;;;;;;0.00;0.00;;;;;10.65;79.02;97287.34;5035410;28;8911;-58
2022/11/17 04:05:22;;;;;;;;;0.75;0.75;;;;;10.65;79.18;97279.34;5038524;28;8860;-58
2022/11/17 04:07:49;;;;;;;;;1.00;0.75;;;;;10.64;79.17;97276.88;5038808;28;9539;-58
2022/11/17 04:10:17;;;;;;;;;0.00;0.00;;;;;10.61;79.50;97274.59;5039135;28;8833;-58
2022/11/17 04:18:15;;;;;;;;;0.00;0.00;;;;;10.56;79.66;97272.47;5038920;28;8884;-58
2022/11/17 04:20:43;;;;;;;;;0.00;0.00;;;;;10.56;79.91;97275.13;5038768;28;8882;-58
2022/11/17 04:23:12;;;;;;;;;0.00;0.00;;;;;10.57;79.77;97276.81;5043837;28;9576;-57
2022/11/17 04:28:40;;;;;;;;;0.00;0.00;;;;;10.57;79.87;97279.47;5058960;28;8822;-58
2022/11/17 04:31:08;;;;;;;;;0.00;0.00;;;;;10.58;79.88;97272.28;5053317;28;8886;-58
2022/11/17 04:33:35;;;;;;;;;0.00;0.00;;;;;10.59;80.17;97281.94;5038797;28;8915;-58
2022/11/17 04:36:04;;;;;;;;;0.25;0.00;;;;;10.57;80.62;97270.66;5038105;28;8828;-58
2022/11/17 04:38:31;;;;;;;;;0.00;0.00;;;;;10.57;79.91;97260.84;5038488;28;8816;-58
2022/11/17 04:43:44;;;;;;;;;0.00;0.00;;;;;10.54;80.56;97245.25;5037864;28;8843;-56
2022/11/17 04:46:11;;;;;;;;;0.00;0.00;;;;;10.53;80.48;97246.25;5037778;28;8860;-55
2022/11/17 04:48:39;;;;;;;;;0.00;0.00;;;;;10.53;80.70;97235.63;5037697;28;8829;-57
2022/11/17 04:51:07;;;;;;;;;0.00;0.00;;;;;10.54;80.39;97231.94;5037695;28;8914;-57
2022/11/17 04:53:34;;;;;;;;;0.00;0.00;;;;;10.55;80.21;97228.25;5045626;28;8834;-57
2022/11/17 04:56:03;;;;;;;;;0.00;0.00;;;;;10.55;80.49;97228.25;5057375;28;8937;-57
2022/11/17 04:58:30;;;;;;;;;0.50;0.00;;;;;10.52;80.28;97226.00;5057234;28;8846;-58
2022/11/17 05:01:11;;;;;;;;;0.00;0.00;;;;;10.50;80.44;97235.16;5045843;28;8828;-57
2022/11/17 05:03:38;;;;;;;;;0.00;0.00;;;;;10.47;80.60;97246.19;5037469;28;8817;-57
2022/11/17 05:06:06;;;;;;;;;0.00;0.00;;;;;10.47;80.76;97247.00;5037774;28;8848;-57
2022/11/17 05:08:34;;;;;;;;;0.00;0.00;;;;;10.52;80.17;97255.25;5037947;28;8851;-57
2022/11/17 05:13:43;;;;;;;;;0.00;0.00;;;;;10.60;80.57;97255.13;4994935;28;8849;-58
2022/11/17 05:18:57;;;;;;;;;0.00;0.00;;;;;10.69;79.53;97243.34;5037321;28;8812;-57
2022/11/17 05:21:24;;;;;;;;;0.00;0.00;;;;;10.73;79.74;97228.69;5036733;28;8906;-56
2022/11/17 05:23:53;;;;;;;;;0.00;0.00;;;;;10.77;80.12;97229.94;5047770;28;8839;-57
2022/11/17 05:26:21;;;;;;;;;0.00;0.00;;;;;10.79;79.40;97225.25;5043072;28;8821;-58
2022/11/17 05:28:52;;;;;;;;;0.00;0.00;;;;;10.82;79.98;97227.53;5037495;28;8817;-57
2022/11/17 05:31:32;;;;;;;;;0.00;0.00;;;;;10.84;79.96;97214.84;5036755;28;8933;-58
2022/11/17 05:33:59;;;;;;;;;0.00;0.00;;;;;10.85;79.48;97218.34;5036950;28;9491;-58
2022/11/17 05:36:27;;;;;;;;;0.00;0.00;;;;;10.82;79.36;97222.19;5036663;28;8837;-58
2022/11/17 05:38:55;;;;;;;;;0.00;0.00;;;;;10.80;80.21;97199.44;5036852;28;8837;-58
2022/11/17 05:41:23;;;;;;;;;0.50;0.00;;;;;10.77;79.95;97189.19;5037024;28;8828;-58
2022/11/17 05:43:52;;;;;;;;;3.00;1.00;;;;;10.75;79.99;97181.38;5036892;28;8841;-56
2022/11/17 05:46:20;;;;;;;;;0.50;0.50;;;;;10.74;80.29;97177.09;5036545;28;8809;-58
2022/11/17 05:48:48;;;;;;;;;0.25;0.25;;;;;10.75;80.24;97176.06;5035975;28;8824;-58
2022/11/17 05:51:16;;;;;;;;;0.50;0.50;;;;;10.77;79.84;97167.91;5036586;28;8976;-58
2022/11/17 05:53:44;;;;;;;;;0.00;0.00;;;;;10.77;79.57;97183.88;5046421;28;8909;-58
2022/11/17 05:56:14;;;;;;;;;0.25;0.00;;;;;10.75;79.52;97167.25;5043657;28;8808;-57
2022/11/17 05:58:42;;;;;;;;;0.00;0.00;;;;;10.71;79.85;97158.81;5036330;28;8837;-57
2022/11/17 06:01:10;;;;;;;;;0.50;0.25;;;;;10.74;79.99;97168.25;5036172;28;8832;-55
2022/11/17 06:03:38;;;;;;;;;1.00;1.00;;;;;10.76;80.23;97180.38;5036243;28;9563;-58
2022/11/17 06:06:05;;;;;;;;;1.00;1.00;;;;;10.78;79.69;97170.34;5035358;28;8836;-58
2022/11/17 06:08:33;;;;;;;;;3.50;3.00;;;;;10.77;79.78;97171.38;5035933;28;8860;-57
2022/11/17 06:11:01;;;;;;;;;1.00;1.00;;;;;10.79;79.46;97177.34;5035035;28;8821;-58
2022/11/17 06:13:29;;;;;;;;;0.00;0.00;;;;;10.82;79.36;97170.78;5035904;28;8857;-58
2022/11/17 06:15:56;;;;;;;;;3.00;3.00;;;;;10.88;79.81;97178.84;5035773;28;9534;-58
2022/11/17 06:18:24;;;;;;;;;1.00;0.75;;;;;10.92;79.32;97188.09;5035053;28;8853;-57
2022/11/17 06:20:52;;;;;;;;;1.00;1.00;;;;;10.97;78.89;97191.00;5035065;28;8842;-58
2022/11/17 06:23:20;;;;;;;;;3.00;2.00;;;;;11.03;78.82;97192.06;5041372;28;9496;-57
2022/11/17 06:25:48;;;;;;;;;1.50;1.00;;;;;11.07;79.02;97191.50;5053265;28;8834;-58
2022/11/17 06:28:15;;;;;;;;;2.50;1.00;;;;;11.12;78.71;97193.56;5050803;28;8829;-58
2022/11/17 06:30:43;;;;;;;;;0.75;0.75;;;;;11.17;78.13;97192.00;5033992;28;8910;-58
2022/11/17 06:33:11;;;;;;;;;1.00;1.00;;;;;11.21;78.49;97198.59;5033926;28;8851;-58
2022/11/17 06:35:40;;;;;;;;;3.00;3.00;;;;;11.23;78.12;97191.22;5034116;28;8820;-58
2022/11/17 06:38:08;;;;;;;;;2.00;2.00;;;;;11.19;78.27;97194.47;5034112;28;8832;-57
2022/11/17 06:40:36;;;;;;;;;1.00;1.00;;;;;11.13;78.71;97195.22;5033720;28;9512;-56
2022/11/17 06:43:07;;;;;;;;;3.75;3.50;;;;;11.07;79.31;97204.81;5034282;28;8865;-56
2022/11/17 06:45:37;;;;;;;;;1.00;1.00;;;;;11.00;79.15;97200.47;5034293;28;9773;-56
2022/11/17 06:48:05;;;;;;;;;0.75;0.75;;;;;10.93;79.72;97203.03;5033566;28;8836;-56
2022/11/17 06:50:32;;;;;;;;;1.00;1.00;;;;;10.90;79.68;97199.94;5033683;28;9544;-55
2022/11/17 06:53:00;;;;;;;;;2.00;1.00;;;;;10.87;79.67;97209.16;5034122;28;8842;-55
2022/11/17 06:55:28;;;;;;;;;1.00;1.00;;;;;10.85;79.64;97197.84;5033778;28;8879;-56
2022/11/17 06:57:56;;;;;;;;;1.00;0.00;;;;;10.84;79.57;97198.88;5033406;28;8845;-56
2022/11/17 07:00:24;;;;;;;;;3.00;2.00;;;;;10.81;79.87;97199.28;5032958;28;8852;-58
2022/11/17 07:02:52;;;;;;;;;1.00;1.00;;;;;10.79;80.15;97201.31;5013981;28;8854;-58
2022/11/17 07:05:20;;;;;;;;;1.00;1.00;;;;;10.77;80.68;97199.84;5030829;28;8804;-57
2022/11/17 07:07:48;;;;;;;;;4.75;2.50;;;;;10.74;80.11;97202.88;5032481;28;8836;-57
2022/11/17 07:10:17;;;;;;;;;1.50;1.50;;;;;10.70;80.15;97207.75;5031354;28;8959;-55
2022/11/17 07:12:45;;;;;;;;;1.00;1.00;;;;;10.69;80.76;97221.25;5012613;28;8873;-56
2022/11/17 07:15:13;;;;;;;;;0.75;0.75;;;;;10.66;80.62;97218.97;5023666;28;8835;-55
2022/11/17 07:17:41;;;;;;;;;0.75;0.75;;;;;10.66;80.85;97229.59;5032103;28;8987;-57
2022/11/17 07:20:09;;;;;;;;;2.00;2.00;;;;;10.67;80.82;97236.56;5032036;28;8920;-57
2022/11/17 07:22:43;;;;;;;;;0.25;0.25;;;;;10.68;80.75;97236.38;5033291;28;8845;-57
2022/11/17 07:25:11;;;;;;;;;1.00;1.00;;;;;10.68;80.50;97233.72;5042917;28;8840;-57
2022/11/17 07:27:39;;;;;;;;;1.00;1.00;;;;;10.69;80.27;97234.56;5033259;28;8821;-57
2022/11/17 07:30:06;;;;;;;;;1.00;1.00;;;;;10.65;81.36;97230.63;5033394;28;9859;-57
2022/11/17 07:32:35;;;;;;;;;1.50;1.50;;;;;10.63;81.03;97228.13;5032955;28;8844;-58
2022/11/17 07:35:04;;;;;;;;;3.50;2.00;;;;;10.62;80.72;97223.03;5033149;28;8836;-57
2022/11/17 07:37:33;;;;;;;;;0.00;0.00;;;;;10.62;81.02;97225.69;5032960;28;8899;-58
2022/11/17 07:40:01;;;;;;;;;1.00;1.00;;;;;10.60;81.13;97225.88;5036894;28;8817;-57
2022/11/17 07:42:28;;;;;;;;;2.50;2.50;;;;;10.61;81.05;97227.50;5037673;28;8964;-57
2022/11/17 07:44:56;;;;;;;;;1.00;1.00;;;;;10.63;80.68;97236.13;5037977;28;8841;-57
2022/11/17 07:47:26;;;;;;;;;1.00;1.00;;;;;10.63;80.49;97233.47;5038040;28;8837;-58
2022/11/17 07:49:54;;;;;;;;;1.00;1.00;;;;;10.63;80.74;97222.81;5037923;28;8853;-58
2022/11/17 07:52:21;;;;;;;;;1.50;1.50;;;;;10.62;81.17;97226.50;5038183;28;9487;-57
2022/11/17 07:54:49;;;;;;;;;0.00;0.00;;;;;10.63;80.68;97230.81;5056189;28;8841;-57
2022/11/17 07:57:19;;;;;;;;;1.00;1.00;;;;;10.64;80.86;97234.31;5057399;28;8896;-57
2022/11/17 07:59:48;;;;;;;;;0.00;0.00;;;;;10.62;80.91;97234.47;5057361;28;8834;-57
2022/11/17 08:02:16;;;;;;;;;0.00;0.00;;;;;10.61;81.12;97238.16;5057295;28;8852;-57
2022/11/17 08:04:44;;;;;;;;;0.00;0.00;;;;;10.62;81.11;97231.81;5057530;28;8979;-57
2022/11/17 08:07:12;;;;;;;;;0.75;0.00;;;;;10.61;81.84;97230.16;5053077;28;8817;-57
2022/11/17 08:09:40;;;;;;;;;1.00;1.00;;;;;10.58;81.80;97227.91;5036395;28;8836;-57
2022/11/17 08:12:11;;;;;;;;;0.00;0.00;;;;;10.57;81.95;97230.75;5035477;28;8822;-57
2022/11/17 08:14:39;;;;;;;;;0.00;0.00;;;;;10.57;82.04;97231.56;5036705;28;8826;-57
2022/11/17 08:17:07;;;;;;;;;0.00;0.00;;;;;10.61;81.52;97243.47;5035758;28;8836;-57
2022/11/17 08:19:34;;;;;;;;;0.00;0.00;;;;;10.65;81.96;97242.09;5036032;28;8837;-57
2022/11/17 08:22:03;;;;;;;;;0.00;0.00;;;;;10.70;81.57;97250.31;5036097;28;8883;-57
2022/11/17 08:24:31;;;;;;;;;0.00;0.00;;;;;10.73;81.29;97238.47;5052730;28;8831;-57
2022/11/17 08:26:59;;;;;;;;;0.00;0.00;;;;;10.75;81.53;97249.75;5056908;28;8861;-57
2022/11/17 08:29:27;;;;;;;;;0.00;0.00;;;;;10.76;81.17;97248.78;5042339;28;8832;-57
2022/11/17 08:31:55;;;;;;;;;0.00;0.00;;;;;10.75;81.18;97244.44;5035690;28;8841;-57
2022/11/17 08:34:23;;;;;;;;;0.00;0.00;;;;;10.76;80.78;97249.56;5035747;28;8842;-57
2022/11/17 08:36:54;;;;;;;;;0.00;0.00;;;;;10.82;80.70;97255.97;5035385;28;8817;-57
2022/11/17 08:39:22;;;;;;;;;0.00;0.00;;;;;10.87;80.34;97261.56;5035956;28;8856;-57
2022/11/17 08:41:50;;;;;;;;;0.00;0.00;;;;;10.92;80.61;97253.84;5034758;28;8934;-57
2022/11/17 08:44:17;;;;;;;;;0.00;0.00;;;;;10.97;80.85;97256.75;5035368;28;8836;-58
2022/11/17 08:46:47;;;;;;;;;0.00;0.00;;;;;11.02;80.34;97267.66;5034707;28;8856;-58
2022/11/17 08:49:17;;;;;;;;;0.00;0.00;;;;;11.09;80.44;97266.69;5034811;28;8962;-57
2022/11/17 08:51:45;;;;;;;;;0.00;0.00;;;;;11.15;79.91;97273.13;5035933;28;9532;-58
2022/11/17 08:54:13;;;;;;;;;0.00;0.00;;;;;11.20;79.63;97273.34;5048764;28;8834;-57
2022/11/17 08:56:41;;;;;;;;;0.00;0.00;;;;;11.26;79.41;97276.09;5038141;28;8835;-57
2022/11/17 08:59:10;;;;;;;;;0.00;0.00;;;;;11.33;79.25;97281.47;5035940;28;8840;-56
2022/11/17 09:01:40;;;;;;;;;0.00;0.00;;;;;11.37;78.65;97299.53;5034744;28;10340;-58
2022/11/17 09:04:08;;;;;;;;;0.00;0.00;;;;;11.41;78.66;97294.66;5035380;28;9555;-57
2022/11/17 09:06:36;;;;;;;;;0.00;0.00;;;;;11.43;78.90;97300.59;5034187;28;8829;-58
2022/11/17 09:09:04;;;;;;;;;0.00;0.00;;;;;11.39;78.84;97308.16;5035041;28;8871;-57
2022/11/17 09:11:32;;;;;;;;;0.00;0.00;;;;;11.34;78.75;97313.25;5033615;28;8963;-57
2022/11/17 09:14:00;;;;;;;;;0.00;0.00;;;;;11.24;79.19;97310.06;5034116;28;8865;-57
2022/11/17 09:16:28;;;;;;;;;0.00;0.00;;;;;11.14;79.85;97304.25;5034052;28;8833;-57
2022/11/17 09:18:57;;;;;;;;;0.00;0.00;;;;;11.07;79.86;97326.50;5035227;28;8878;-56
2022/11/17 09:21:25;;;;;;;;;0.00;0.00;;;;;11.00;79.89;97323.75;5034941;28;8856;-57
2022/11/17 09:23:54;;;;;;;;;0.00;0.00;;;;;10.96;80.07;97338.47;5042651;28;9506;-57
2022/11/17 09:26:22;;;;;;;;;0.00;0.00;;;;;10.95;80.15;97347.47;5035103;28;8951;-57
2022/11/17 09:28:50;;;;;;;;;0.00;0.00;;;;;10.92;80.17;97341.69;5035706;28;8840;-58
2022/11/17 09:31:18;;;;;;;;;0.00;0.00;;;;;10.87;80.34;97347.59;5035274;28;8833;-58
2022/11/17 09:33:46;;;;;;;;;0.00;0.00;;;;;10.83;80.39;97348.97;5035871;28;8878;-58
2022/11/17 09:36:15;;;;;;;;;0.50;0.00;;;;;10.81;80.80;97352.81;5034960;28;8840;-58
2022/11/17 09:38:46;;;;;;;;;0.00;0.00;;;;;10.81;80.63;97351.00;5034367;28;8833;-57
2022/11/17 09:41:15;;;;;;;;;0.00;0.00;;;;;10.82;80.55;97349.97;5035240;28;8852;-58
2022/11/17 09:43:42;;;;;;;;;0.00;0.00;;;;;10.88;80.40;97348.41;5035869;28;8832;-57
2022/11/17 09:46:10;;;;;;;;;0.00;0.00;;;;;10.95;80.46;97344.81;5035619;28;8816;-57
2022/11/17 09:48:39;;;;;;;;;0.00;0.00;;;;;11.07;80.11;97356.59;5035129;28;8832;-58
2022/11/17 09:51:18;;;;;;;;;0.00;0.00;;;;;11.23;79.51;97359.03;5035683;28;8824;-58
2022/11/17 09:53:46;;;;;;;;;0.00;0.00;;;;;11.36;78.86;97345.84;5044064;28;8881;-58
2022/11/17 09:56:14;;;;;;;;;0.00;0.00;;;;;11.52;78.86;97350.09;5035316;28;8836;-58
2022/11/17 09:58:43;;;;;;;;;0.00;0.00;;;;;11.66;78.38;97350.06;5035665;28;8845;-58
2022/11/17 10:01:11;;;;;;;;;0.00;0.00;;;;;11.77;78.08;97346.03;5033326;28;8832;-57
2022/11/17 10:03:39;;;;;;;;;0.00;0.00;;;;;11.87;77.57;97355.34;5034170;28;9548;-58
2022/11/17 10:06:12;;;;;;;;;0.00;0.00;;;;;11.95;77.79;97347.22;5034688;28;8836;-58
2022/11/17 10:08:40;;;;;;;;;0.00;0.00;;;;;12.06;77.60;97349.34;5034586;28;8816;-58
2022/11/17 10:11:30;;;;;;;;;0.00;0.00;;;;;12.14;76.64;97352.69;5034453;28;8815;-58
2022/11/17 10:13:57;;;;;;;;;0.00;0.00;;;;;12.23;77.14;97356.84;5034446;28;8850;-58
2022/11/17 10:16:25;;;;;;;;;0.00;0.00;;;;;12.35;77.25;97357.94;5034087;28;8938;-57
2022/11/17 10:18:53;;;;;;;;;0.00;0.00;;;;;12.47;76.02;97353.69;5034139;28;8871;-57
2022/11/17 10:21:22;;;;;;;;;0.00;0.00;;;;;12.55;76.13;97360.72;5034958;28;8915;-58
2022/11/17 10:23:50;;;;;;;;;0.00;0.00;;;;;12.56;75.92;97367.72;5044402;28;8834;-57
2022/11/17 10:26:18;;;;;;;;;0.00;0.00;;;;;12.62;75.82;97367.75;5053425;28;9609;-56
2022/11/17 10:28:47;;;;;;;;;0.00;0.00;;;;;12.66;76.19;97362.81;5037985;28;8865;-57
2022/11/17 10:31:15;;;;;;;;;0.00;0.00;;;;;12.68;75.85;97358.13;5033764;28;8848;-57
2022/11/17 10:33:43;;;;;;;;;0.00;0.00;;;;;12.69;76.48;97367.78;5034088;28;8857;-57
2022/11/17 10:36:11;;;;;;;;;0.00;0.00;;;;;12.79;75.79;97365.56;5033358;28;8941;-57
2022/11/17 10:38:39;;;;;;;;;0.00;0.00;;;;;12.81;75.87;97369.69;5034151;28;8941;-57
2022/11/17 10:41:07;;;;;;;;;0.50;0.00;;;;;12.82;75.78;97375.84;5032437;28;9486;-58
2022/11/17 10:43:35;;;;;;;;;0.00;0.00;;;;;12.80;75.34;97375.22;5032152;28;8934;-58
2022/11/17 10:46:04;;;;;;;;;0.00;0.00;;;;;12.73;75.45;97369.03;5031730;28;8841;-57
2022/11/17 10:48:32;;;;;;;;;0.00;0.00;;;;;12.69;75.88;97381.13;5032877;28;9102;-57
2022/11/17 10:51:00;;;;;;;;;1.00;0.00;;;;;12.66;75.78;97384.19;5032437;28;8927;-58
2022/11/17 10:53:28;;;;;;;;;0.75;0.75;;;;;12.66;76.12;97392.19;5035201;28;8955;-58
2022/11/17 10:55:56;;;;;;;;;0.00;0.00;;;;;12.64;76.17;97380.91;5033137;28;9532;-57
2022/11/17 10:58:25;;;;;;;;;0.50;0.00;;;;;12.64;75.70;97375.56;5033467;28;8849;-57
2022/11/17 11:00:53;;;;;;;;;0.00;0.00;;;;;12.71;76.10;97379.09;5032612;28;8841;-58
2022/11/17 11:03:21;;;;;;;;;0.00;0.00;;;;;12.81;75.52;97371.53;5030952;28;8848;-58
2022/11/17 11:05:49;;;;;;;;;0.00;0.00;;;;;12.92;75.62;97373.66;5032053;28;8833;-58
2022/11/17 11:08:17;;;;;;;;;0.00;0.00;;;;;13.00;75.04;97386.84;5031686;28;8946;-58
2022/11/17 11:10:45;;;;;;;;;0.00;0.00;;;;;13.03;74.76;97375.75;5032250;28;8844;-58
2022/11/17 11:13:13;;;;;;;;;1.00;1.00;;;;;13.03;74.56;97381.94;5031702;28;8841;-57
2022/11/17 11:15:42;;;;;;;;;0.00;0.00;;;;;13.00;74.98;97384.19;5031659;28;8829;-58
2022/11/17 11:18:10;;;;;;;;;0.00;0.00;;;;;12.94;74.95;97390.28;5032989;28;8902;-58
2022/11/17 11:20:39;;;;;;;;;0.50;0.50;;;;;12.73;75.82;97391.22;5031871;28;8832;-57
2022/11/17 11:23:07;;;;;;;;;0.00;0.00;;;;;12.47;76.57;97390.25;5036418;28;8827;-57
2022/11/17 11:25:35;;;;;;;;;0.50;0.00;;;;;12.24;77.32;97400.38;5035508;28;8875;-57
2022/11/17 11:28:05;;;;;;;;;0.00;0.00;;;;;12.07;77.98;97404.34;5032126;28;9003;-57
2022/11/17 11:30:33;;;;;;;;;0.00;0.00;;;;;11.90;78.13;97392.28;5031666;28;8832;-58
2022/11/17 11:33:01;;;;;;;;;0.00;0.00;;;;;11.79;78.25;97395.50;5031626;28;8812;-58
2022/11/17 11:35:29;;;;;;;;;0.00;0.00;;;;;11.75;78.38;97396.88;5031862;28;8832;-57
2022/11/17 11:37:57;;;;;;;;;0.00;0.00;;;;;11.74;78.78;97408.56;5032489;28;8829;-58
2022/11/17 11:40:26;;;;;;;;;0.00;0.00;;;;;11.72;79.09;97402.59;5032565;28;8837;-57
2022/11/17 11:42:54;;;;;;;;;0.50;0.00;;;;;11.72;78.33;97418.59;5031703;28;8868;-57
2022/11/17 11:45:23;;;;;;;;;0.00;0.00;;;;;11.74;78.90;97413.91;5032644;28;8841;-58
2022/11/17 11:47:51;;;;;;;;;0.00;0.00;;;;;11.85;78.71;97416.06;5033380;28;8856;-58
2022/11/17 11:50:19;;;;;;;;;0.00;0.00;;;;;11.98;78.09;97417.00;5032837;28;8886;-58
2022/11/17 11:52:47;;;;;;;;;0.00;0.00;;;;;12.14;77.16;97422.03;5034532;28;9463;-58
2022/11/17 11:55:15;;;;;;;;;0.75;0.75;;;;;12.24;77.17;97422.53;5047557;28;8888;-58
2022/11/17 11:57:43;;;;;;;;;0.00;0.00;;;;;12.27;76.83;97422.16;5032466;28;8829;-58
2022/11/17 12:00:12;;;;;;;;;0.00;0.00;;;;;12.29;77.32;97424.59;5032103;28;8848;-58
2022/11/17 12:02:40;;;;;;;;;0.00;0.00;;;;;12.31;76.88;97430.59;5031324;28;8890;-57
2022/11/17 12:05:11;;;;;;;;;0.00;0.00;;;;;12.31;76.80;97431.41;5030171;28;8852;-57
2022/11/17 12:07:39;;;;;;;;;0.00;0.00;;;;;12.33;76.90;97436.56;5029939;28;8852;-57
2022/11/17 12:10:07;;;;;;;;;0.00;0.00;;;;;12.37;76.59;97437.81;5028671;28;8817;-57